Time;durP1;ratioP1;P1;durP2;ratioP2;P2;SDS_P1;SDS_P2;PMS_P1;PMS_P2;Temp;Humidity;BMP_temperature;BMP_pressure;BME280_temperature;BME280_humidity;BME280_pressure;Samples;Min_cycle;Max_cycle;Signal;HPM_P1;HPM_P2
2021/01/05 00:02:00;;;;;;;30.37;17.47;;;2.40;99.90;;;;;;6123190;23;20177;-76
2021/01/05 00:04:33;;;;;;;25.60;16.40;;;2.40;99.90;;;;;;6124271;23;20176;-77
2021/01/05 00:06:59;;;;;;;24.83;16.50;;;2.40;99.90;;;;;;6100288;23;20361;-77
2021/01/05 00:09:25;;;;;;;27.67;16.07;;;2.30;99.90;;;;;;6124371;23;20375;-76
2021/01/05 00:11:59;;;;;;;21.00;15.50;;;2.40;99.90;;;;;;6126191;23;20370;-77
2021/01/05 00:14:25;;;;;;;21.93;15.93;;;2.30;99.90;;;;;;6124406;23;20183;-77
2021/01/05 00:16:50;;;;;;;23.80;16.17;;;2.40;99.90;;;;;;6125330;23;20678;-77
2021/01/05 00:19:16;;;;;;;24.70;16.47;;;2.40;99.90;;;;;;6076238;23;20374;-77
2021/01/05 00:21:42;;;;;;;21.47;14.97;;;2.40;99.90;;;;;;6100078;23;20703;-76
2021/01/05 00:24:08;;;;;;;22.33;14.27;;;2.50;99.90;;;;;;6099280;23;20514;-76
2021/01/05 00:26:38;;;;;;;26.97;17.53;;;2.40;99.90;;;;;;6125389;23;20200;-76
2021/01/05 00:29:04;;;;;;;23.93;15.73;;;2.30;99.90;;;;;;6123419;23;20357;-78
2021/01/05 00:31:30;;;;;;;29.27;17.30;;;2.40;99.90;;;;;;6099036;23;20734;-77
2021/01/05 00:33:56;;;;;;;25.27;16.63;;;2.40;99.90;;;;;;6124421;23;20387;-77
2021/01/05 00:36:22;;;;;;;22.93;16.90;;;2.40;99.90;;;;;;6126671;23;20458;-77
2021/01/05 00:38:48;;;;;;;24.37;16.37;;;2.40;99.90;;;;;;6099055;23;20168;-77
2021/01/05 00:41:13;;;;;;;23.20;15.73;;;2.40;99.90;;;;;;6075028;23;20715;-77
2021/01/05 00:43:39;;;;;;;24.57;17.20;;;2.40;99.90;;;;;;6099278;23;20534;-76
2021/01/05 00:46:09;;;;;;;25.97;17.10;;;2.40;99.90;;;;;;6076873;23;20259;-76
2021/01/05 00:48:35;;;;;;;22.40;15.03;;;2.50;99.90;;;;;;6097493;23;20383;-77
2021/01/05 00:51:01;;;;;;;24.83;17.20;;;2.50;99.90;;;;;;6122941;23;20334;-77
2021/01/05 00:53:26;;;;;;;22.50;16.83;;;2.50;99.90;;;;;;6074570;23;20457;-77
2021/01/05 00:55:52;;;;;;;27.90;16.13;;;2.50;99.90;;;;;;6125409;23;20239;-77
2021/01/05 00:58:23;;;;;;;24.13;16.20;;;2.50;99.90;;;;;;6123087;23;20172;-77
2021/01/05 01:00:50;;;;;;;24.20;16.10;;;2.50;99.90;;;;;;6101846;23;20172;-77
2021/01/05 01:03:19;;;;;;;25.90;17.33;;;2.50;99.90;;;;;;6098562;23;20469;-77
2021/01/05 01:05:45;;;;;;;22.60;15.03;;;2.50;99.90;;;;;;6126397;23;20349;-76
2021/01/05 01:08:12;;;;;;;22.50;15.90;;;2.50;99.90;;;;;;6124683;23;20410;-76
2021/01/05 01:10:39;;;;;;;29.00;15.77;;;2.50;99.90;;;;;;6099381;23;20379;-76
2021/01/05 01:13:06;;;;;;;24.90;15.90;;;2.50;99.90;;;;;;6124740;23;20363;-77
2021/01/05 01:15:32;;;;;;;23.77;15.97;;;2.40;99.90;;;;;;6126992;23;21363;-77
2021/01/05 01:17:58;;;;;;;21.73;15.30;;;2.40;99.90;;;;;;6097646;23;20497;-77
2021/01/05 01:20:23;;;;;;;23.40;17.13;;;2.40;99.90;;;;;;6128487;23;20341;-77
2021/01/05 01:22:49;;;;;;;21.37;14.33;;;2.40;99.90;;;;;;6077703;23;20243;-77
2021/01/05 01:25:15;;;;;;;20.27;14.30;;;2.40;99.90;;;;;;6099798;23;20478;-77
2021/01/05 01:27:41;;;;;;;19.10;12.73;;;2.40;99.90;;;;;;6125036;23;20395;-76
2021/01/05 01:30:08;;;;;;;20.30;15.30;;;2.40;99.90;;;;;;6102011;23;20977;-76
2021/01/05 01:32:34;;;;;;;25.20;16.53;;;2.50;99.90;;;;;;6128814;23;20891;-76
2021/01/05 01:35:01;;;;;;;22.27;14.50;;;2.50;99.90;;;;;;6101284;23;20869;-77
2021/01/05 01:37:27;;;;;;;20.60;13.27;;;2.50;99.90;;;;;;6101573;23;20176;-77
2021/01/05 01:39:52;;;;;;;27.07;15.10;;;2.50;99.90;;;;;;6100682;23;20353;-77
2021/01/05 01:42:19;;;;;;;23.37;15.60;;;2.50;99.90;;;;;;6124767;23;20480;-77
2021/01/05 01:44:47;;;;;;;25.23;16.23;;;2.50;99.90;;;;;;6126703;23;20172;-77
2021/01/05 01:47:24;;;;;;;21.77;14.40;;;2.50;99.90;;;;;;6098218;23;20847;-77
2021/01/05 01:49:57;;;;;;;27.27;17.53;;;2.60;99.90;;;;;;6126340;23;20763;-77
2021/01/05 01:53:04;;;;;;;26.07;15.90;;;2.60;99.90;;;;;;6101690;23;20413;-77
2021/01/05 01:55:57;;;;;;;24.17;15.57;;;2.60;99.90;;;;;;6078629;23;20417;-77
2021/01/05 01:58:47;;;;;;;22.20;14.67;;;2.60;99.90;;;;;;6126751;23;20375;-77
2021/01/05 02:01:51;;;;;;;24.50;15.80;;;2.60;99.90;;;;;;6126252;23;20362;-77
2021/01/05 02:04:38;;;;;;;24.30;14.97;;;2.60;99.90;;;;;;6123686;23;20361;-77
2021/01/05 02:07:25;;;;;;;23.87;16.03;;;2.60;99.90;;;;;;6125049;23;20792;-77
2021/01/05 02:10:10;;;;;;;28.57;18.77;;;2.60;99.90;;;;;;6100641;23;20421;-77
2021/01/05 02:12:59;;;;;;;25.50;16.60;;;2.60;99.90;;;;;;6124872;23;20387;-79
2021/01/05 02:15:57;;;;;;;27.90;17.80;;;2.60;99.90;;;;;;6148042;23;20434;-75
2021/01/05 02:18:34;;;;;;;29.33;18.40;;;2.70;99.90;;;;;;6154836;23;20376;-76
2021/01/05 02:21:23;;;;;;;30.57;16.47;;;2.70;99.90;;;;;;6127894;23;20921;-76
2021/01/05 02:24:21;;;;;;;29.97;17.67;;;2.70;99.90;;;;;;6155289;23;20370;-76
2021/01/05 02:26:56;;;;;;;23.93;17.40;;;2.70;99.90;;;;;;6127492;23;20406;-76
2021/01/05 02:29:29;;;;;;;33.90;17.90;;;2.70;99.90;;;;;;6155579;23;20414;-76
2021/01/05 02:32:07;;;;;;;25.50;15.97;;;2.70;99.90;;;;;;6128718;23;20349;-76
2021/01/05 02:35:13;;;;;;;28.50;16.90;;;2.70;99.90;;;;;;6128503;23;20416;-77
2021/01/05 02:38:04;;;;;;;26.17;17.30;;;2.70;99.90;;;;;;6154500;23;20901;-76
2021/01/05 02:41:15;;;;;;;28.90;18.40;;;2.70;99.90;;;;;;6129298;23;20337;-76
2021/01/05 02:44:18;;;;;;;27.23;18.00;;;2.80;99.90;;;;;;6129026;23;20397;-76
2021/01/05 02:46:52;;;;;;;27.90;17.70;;;2.70;99.90;;;;;;6154545;23;20417;-77
2021/01/05 02:49:27;;;;;;;31.37;20.50;;;2.70;99.90;;;;;;6128716;23;20337;-77
2021/01/05 02:52:40;;;;;;;30.73;19.40;;;2.60;99.90;;;;;;6154648;23;20674;-76
2021/01/05 02:55:43;;;;;;;31.00;19.70;;;2.60;99.90;;;;;;6128061;23;20784;-76
2021/01/05 02:58:23;;;;;;;32.43;18.80;;;2.60;99.90;;;;;;6128294;23;20401;-76
2021/01/05 03:01:18;;;;;;;32.77;19.40;;;2.70;99.90;;;;;;6128422;23;20445;-77
2021/01/05 03:03:47;;;;;;;26.23;17.50;;;2.60;99.90;;;;;;6155987;23;20372;-76
2021/01/05 03:06:13;;;;;;;25.47;17.70;;;2.70;99.90;;;;;;6129147;23;20382;-77
2021/01/05 03:09:02;;;;;;;28.57;17.67;;;2.70;99.90;;;;;;6127278;23;20762;-76
2021/01/05 03:11:45;;;;;;;29.60;18.13;;;2.70;99.90;;;;;;6155448;23;20171;-77
2021/01/05 03:14:32;;;;;;;27.83;17.87;;;2.70;99.90;;;;;;6164434;23;20431;-77
2021/01/05 03:17:23;;;;;;;25.40;16.90;;;2.70;99.90;;;;;;6184325;23;20396;-76
2021/01/05 03:20:13;;;;;;;25.70;17.83;;;2.70;99.90;;;;;;6159790;23;20354;-76
2021/01/05 03:22:49;;;;;;;28.20;18.17;;;2.70;99.90;;;;;;6185413;23;20419;-76
2021/01/05 03:25:16;;;;;;;26.97;16.93;;;2.70;99.90;;;;;;6185887;23;20332;-76
2021/01/05 03:27:43;;;;;;;28.57;16.67;;;2.70;99.90;;;;;;6186162;23;20347;-76
2021/01/05 03:30:20;;;;;;;29.77;16.47;;;2.70;99.90;;;;;;6135438;23;20465;-76
2021/01/05 03:32:45;;;;;;;26.83;16.57;;;2.70;99.90;;;;;;6157234;23;20812;-76
2021/01/05 03:35:11;;;;;;;29.20;18.60;;;2.70;99.90;;;;;;6184476;23;20351;-76
2021/01/05 03:37:37;;;;;;;32.47;18.90;;;2.70;99.90;;;;;;6183185;23;20183;-76
2021/01/05 03:40:03;;;;;;;30.73;18.60;;;2.70;99.90;;;;;;6185632;23;20170;-76
2021/01/05 03:42:29;;;;;;;30.30;16.90;;;2.70;99.90;;;;;;6185644;23;20183;-76
2021/01/05 03:44:55;;;;;;;30.03;18.57;;;2.70;99.90;;;;;;6157390;23;20758;-76
2021/01/05 03:47:20;;;;;;;26.80;16.27;;;2.70;99.90;;;;;;6185652;23;20654;-76
2021/01/05 03:49:46;;;;;;;26.23;16.70;;;2.70;99.90;;;;;;6185717;23;20659;-76
2021/01/05 03:52:11;;;;;;;29.30;18.60;;;2.70;99.90;;;;;;6159099;23;20171;-76
2021/01/05 03:54:37;;;;;;;24.60;17.23;;;2.70;99.90;;;;;;6185841;23;20255;-76
2021/01/05 03:57:03;;;;;;;28.00;17.70;;;2.70;99.90;;;;;;6159209;23;20167;-76
2021/01/05 03:59:29;;;;;;;28.20;18.17;;;2.60;99.90;;;;;;6157355;23;20172;-76
2021/01/05 04:01:54;;;;;;;30.87;18.57;;;2.70;99.90;;;;;;6186988;23;20345;-77
2021/01/05 04:04:21;;;;;;;32.60;17.80;;;2.70;99.90;;;;;;6184022;23;20221;-77
2021/01/05 04:06:47;;;;;;;23.63;17.10;;;2.70;99.90;;;;;;6184267;23;20377;-76
2021/01/05 04:09:13;;;;;;;33.50;19.30;;;2.70;99.90;;;;;;6135558;23;20709;-76
2021/01/05 04:11:38;;;;;;;29.93;17.80;;;2.60;99.90;;;;;;6133417;23;20166;-77
2021/01/05 04:14:04;;;;;;;25.77;16.20;;;2.60;99.90;;;;;;6184149;23;20371;-76
2021/01/05 04:16:32;;;;;;;30.90;19.77;;;2.60;99.90;;;;;;6183152;23;20486;-76
2021/01/05 04:18:58;;;;;;;31.50;17.30;;;2.60;99.90;;;;;;6157187;23;20402;-76
2021/01/05 04:21:23;;;;;;;33.20;18.30;;;2.60;99.90;;;;;;6131732;23;20927;-76
2021/01/05 04:23:49;;;;;;;29.20;16.23;;;2.60;99.90;;;;;;6108507;23;20378;-77
2021/01/05 04:26:15;;;;;;;28.47;17.33;;;2.70;99.90;;;;;;6134355;23;20494;-76
2021/01/05 04:28:40;;;;;;;31.87;17.57;;;2.60;99.90;;;;;;6131775;23;20170;-76
2021/01/05 04:31:06;;;;;;;19.37;12.27;;;2.60;99.90;;;;;;6107229;23;20202;-76
2021/01/05 04:33:32;;;;;;;27.07;17.40;;;2.70;99.90;;;;;;6132402;23;20261;-77
2021/01/05 04:35:57;;;;;;;32.20;18.33;;;2.70;99.90;;;;;;6157733;23;20644;-76
2021/01/05 04:38:23;;;;;;;26.30;17.00;;;2.70;99.90;;;;;;6157546;23;20347;-76
2021/01/05 04:40:51;;;;;;;28.47;18.47;;;2.70;99.90;;;;;;6131858;23;20171;-76
2021/01/05 04:43:35;;;;;;;28.40;18.00;;;2.60;99.90;;;;;;6184114;23;20210;-76
2021/01/05 04:46:23;;;;;;;25.97;16.63;;;2.60;99.90;;;;;;6157795;23;20378;-76
2021/01/05 04:48:54;;;;;;;26.00;16.77;;;2.70;99.90;;;;;;6155344;23;20316;-77
2021/01/05 04:51:26;;;;;;;28.93;17.07;;;2.70;99.90;;;;;;6183206;23;21210;-77
2021/01/05 04:54:03;;;;;;;29.63;18.20;;;2.80;99.90;;;;;;6158329;23;20851;-77
2021/01/05 04:56:40;;;;;;;28.77;17.63;;;2.80;99.90;;;;;;6156932;23;21162;-76
2021/01/05 04:59:10;;;;;;;29.83;17.63;;;2.70;99.90;;;;;;6157907;23;20399;-76
2021/01/05 05:01:36;;;;;;;27.73;17.17;;;2.70;99.90;;;;;;6159011;23;20420;-76
2021/01/05 05:04:37;;;;;;;27.30;15.30;;;2.70;99.90;;;;;;6157796;23;20472;-76
2021/01/05 05:07:31;;;;;;;24.43;16.17;;;2.70;99.90;;;;;;6182613;23;20365;-76
2021/01/05 05:10:02;;;;;;;30.20;17.10;;;2.70;99.90;;;;;;6078746;23;20340;-77
2021/01/05 05:12:59;;;;;;;26.73;15.53;;;2.70;99.90;;;;;;6155959;23;20344;-75
2021/01/05 05:15:27;;;;;;;23.80;16.60;;;2.70;99.90;;;;;;6154927;23;20393;-76
2021/01/05 05:18:10;;;;;;;33.07;16.87;;;2.70;99.90;;;;;;6184091;23;20406;-76
2021/01/05 05:21:01;;;;;;;29.03;16.97;;;2.70;99.90;;;;;;6183687;23;20328;-76
2021/01/05 05:23:51;;;;;;;23.83;14.83;;;2.70;99.90;;;;;;6158525;23;20348;-76
2021/01/05 05:26:29;;;;;;;31.30;17.50;;;2.60;99.90;;;;;;6132568;23;20824;-76
2021/01/05 05:29:02;;;;;;;29.53;17.97;;;2.70;99.90;;;;;;6156215;23;20938;-76
2021/01/05 05:31:33;;;;;;;30.37;17.23;;;2.70;99.90;;;;;;6157765;23;20361;-76
2021/01/05 05:34:02;;;;;;;29.70;17.77;;;2.70;99.90;;;;;;6156316;23;20780;-76
2021/01/05 05:36:46;;;;;;;29.83;15.37;;;2.70;99.90;;;;;;6183768;23;20470;-75
2021/01/05 05:39:40;;;;;;;30.13;16.93;;;2.70;99.90;;;;;;6156745;23;20779;-77
2021/01/05 05:42:31;;;;;;;22.13;15.00;;;2.70;99.90;;;;;;6131779;23;20305;-76
2021/01/05 05:45:06;;;;;;;28.77;16.37;;;2.80;99.90;;;;;;6156661;23;20900;-76
2021/01/05 05:47:59;;;;;;;25.00;13.93;;;2.80;99.90;;;;;;6158487;23;20896;-76
2021/01/05 05:50:49;;;;;;;30.50;17.33;;;2.70;99.90;;;;;;6183459;23;20382;-76
2021/01/05 05:53:19;;;;;;;24.87;15.20;;;2.80;99.90;;;;;;6184914;23;20320;-76
2021/01/05 05:55:57;;;;;;;24.63;14.70;;;2.80;99.90;;;;;;6184766;23;20373;-76
2021/01/05 05:58:37;;;;;;;24.50;15.23;;;2.80;99.90;;;;;;6184545;23;20411;-76
2021/01/05 06:01:10;;;;;;;25.67;17.10;;;2.70;99.90;;;;;;6134775;23;20411;-77
2021/01/05 06:03:36;;;;;;;23.90;16.73;;;2.70;99.90;;;;;;6159759;23;20363;-76
2021/01/05 06:06:03;;;;;;;24.17;15.80;;;2.70;99.90;;;;;;6185765;23;20563;-76
2021/01/05 06:08:28;;;;;;;24.70;16.90;;;2.70;99.90;;;;;;6156674;23;20179;-77
2021/01/05 06:10:54;;;;;;;23.30;16.10;;;2.70;99.90;;;;;;6183336;23;20761;-77
2021/01/05 06:13:20;;;;;;;28.53;16.97;;;2.80;99.90;;;;;;6107758;23;20285;-77
2021/01/05 06:15:46;;;;;;;24.63;15.73;;;2.80;99.90;;;;;;6155893;23;20747;-76
2021/01/05 06:18:14;;;;;;;29.33;17.70;;;2.90;99.90;;;;;;6157853;23;20490;-76
2021/01/05 06:20:40;;;;;;;26.67;16.30;;;2.80;99.90;;;;;;6158307;23;20725;-76
2021/01/05 06:23:06;;;;;;;27.10;15.40;;;2.80;99.90;;;;;;6184175;23;20380;-77
2021/01/05 06:25:32;;;;;;;28.17;16.50;;;2.80;99.90;;;;;;6158439;23;21054;-76
2021/01/05 06:27:58;;;;;;;27.47;15.57;;;2.80;99.90;;;;;;6108319;23;20388;-76
2021/01/05 06:30:24;;;;;;;29.20;17.67;;;2.80;99.90;;;;;;6157518;23;20602;-77
2021/01/05 06:32:50;;;;;;;29.33;16.73;;;2.80;99.90;;;;;;6133151;23;20178;-77
2021/01/05 06:35:18;;;;;;;30.67;17.00;;;2.80;99.90;;;;;;6160615;23;20357;-76
2021/01/05 06:37:44;;;;;;;28.70;17.43;;;2.80;99.90;;;;;;6134568;23;20362;-76
2021/01/05 06:40:11;;;;;;;32.17;17.50;;;2.80;99.90;;;;;;6160009;23;20369;-76
2021/01/05 06:42:37;;;;;;;29.10;17.00;;;2.80;99.90;;;;;;6182950;23;20815;-76
2021/01/05 06:45:06;;;;;;;30.67;19.57;;;2.80;99.90;;;;;;6159544;23;20332;-76
2021/01/05 06:47:32;;;;;;;31.53;17.70;;;2.80;99.90;;;;;;6134835;23;20909;-75
2021/01/05 06:49:57;;;;;;;31.27;19.77;;;2.90;99.90;;;;;;6134180;23;20445;-75
2021/01/05 06:52:24;;;;;;;29.40;17.90;;;2.80;99.90;;;;;;6158880;23;20254;-76
2021/01/05 06:54:50;;;;;;;33.87;17.57;;;2.80;99.90;;;;;;6161674;23;20167;-75
2021/01/05 06:57:16;;;;;;;24.70;16.20;;;2.90;99.90;;;;;;6109521;23;20382;-75
2021/01/05 06:59:41;;;;;;;27.77;16.80;;;2.90;99.90;;;;;;6136084;23;20182;-75
2021/01/05 07:02:07;;;;;;;31.50;19.17;;;2.80;99.90;;;;;;6183978;23;20202;-76
2021/01/05 07:04:33;;;;;;;27.77;18.17;;;2.90;99.90;;;;;;6186777;23;20194;-77
2021/01/05 07:07:00;;;;;;;28.67;18.20;;;2.90;99.90;;;;;;6133083;23;20233;-76
2021/01/05 07:09:27;;;;;;;34.27;18.63;;;3.00;99.90;;;;;;6159715;23;20386;-76
2021/01/05 07:11:52;;;;;;;28.50;17.13;;;2.90;99.90;;;;;;6133573;23;20335;-76
2021/01/05 07:14:21;;;;;;;30.73;19.47;;;2.90;99.90;;;;;;6158954;23;20404;-76
2021/01/05 07:16:47;;;;;;;35.40;18.80;;;2.80;99.90;;;;;;6185298;23;20178;-76
2021/01/05 07:19:14;;;;;;;30.17;17.33;;;2.80;99.90;;;;;;6160019;23;20392;-76
2021/01/05 07:21:40;;;;;;;30.20;17.63;;;2.80;99.90;;;;;;6158474;23;20837;-76
2021/01/05 07:24:07;;;;;;;28.70;17.93;;;2.80;99.90;;;;;;6185255;23;20428;-76
2021/01/05 07:26:34;;;;;;;28.10;17.93;;;2.90;99.90;;;;;;6134815;23;20428;-76
2021/01/05 07:28:59;;;;;;;34.47;19.07;;;2.90;99.90;;;;;;6134757;23;20426;-76
2021/01/05 07:31:25;;;;;;;37.50;17.30;;;2.90;99.90;;;;;;6110740;23;20826;-76
2021/01/05 07:33:52;;;;;;;30.90;18.10;;;2.90;99.90;;;;;;6160334;23;20196;-76
2021/01/05 07:36:26;;;;;;;35.97;17.90;;;2.90;99.90;;;;;;6159726;23;20182;-76
2021/01/05 07:38:52;;;;;;;30.77;18.77;;;2.90;99.90;;;;;;6157745;23;20343;-76
2021/01/05 07:41:19;;;;;;;29.90;18.07;;;3.00;99.90;;;;;;6188124;23;20340;-76
2021/01/05 07:43:45;;;;;;;32.60;19.80;;;2.90;99.90;;;;;;6154263;23;20432;-76
2021/01/05 07:46:11;;;;;;;31.93;17.93;;;2.90;99.90;;;;;;6154132;23;20385;-77
2021/01/05 07:48:37;;;;;;;30.80;17.97;;;2.90;99.90;;;;;;6181581;23;20516;-76
2021/01/05 07:51:06;;;;;;;30.00;16.17;;;2.90;99.90;;;;;;6129971;23;20784;-76
2021/01/05 07:53:31;;;;;;;39.63;19.70;;;3.00;99.90;;;;;;6155796;23;20174;-76
2021/01/05 07:55:57;;;;;;;34.67;18.40;;;3.00;99.90;;;;;;6155239;23;20356;-76
2021/01/05 07:58:22;;;;;;;26.47;17.03;;;2.90;99.90;;;;;;6128467;23;20171;-77
2021/01/05 08:00:48;;;;;;;38.13;20.80;;;2.90;99.90;;;;;;6155717;23;20168;-76
2021/01/05 08:03:14;;;;;;;33.30;18.93;;;2.90;99.90;;;;;;6133189;23;20736;-77
2021/01/05 08:05:40;;;;;;;33.83;18.43;;;3.00;99.90;;;;;;6159004;23;20222;-76
2021/01/05 08:08:05;;;;;;;30.37;19.87;;;2.90;99.90;;;;;;6186269;23;20249;-77
2021/01/05 08:10:37;;;;;;;30.10;18.00;;;2.90;99.90;;;;;;6132453;23;20182;-76
2021/01/05 08:13:06;;;;;;;37.70;18.87;;;2.90;99.90;;;;;;6161057;23;20194;-77
2021/01/05 08:15:32;;;;;;;42.13;21.17;;;3.00;99.90;;;;;;6186125;23;20380;-75
2021/01/05 08:17:59;;;;;;;32.30;18.03;;;3.00;99.90;;;;;;6161353;23;20698;-76
2021/01/05 08:20:28;;;;;;;37.60;19.93;;;3.00;99.90;;;;;;6136482;23;20171;-76
2021/01/05 08:22:54;;;;;;;44.60;23.20;;;3.00;99.90;;;;;;6161650;23;20451;-76
2021/01/05 08:25:22;;;;;;;38.77;20.80;;;3.00;99.90;;;;;;6161938;23;20436;-77
2021/01/05 08:27:49;;;;;;;33.97;19.43;;;3.00;99.90;;;;;;6160493;23;20937;-76
2021/01/05 08:30:23;;;;;;;34.80;19.90;;;3.00;99.90;;;;;;6188298;23;20360;-77
2021/01/05 08:32:51;;;;;;;34.33;19.60;;;3.00;99.90;;;;;;6158584;23;20360;-77
2021/01/05 08:35:19;;;;;;;30.40;19.17;;;3.10;99.90;;;;;;6161846;23;20472;-77
2021/01/05 08:37:44;;;;;;;35.87;20.80;;;3.10;99.90;;;;;;6160925;23;20468;-76
2021/01/05 08:40:18;;;;;;;37.37;18.80;;;3.20;99.90;;;;;;6188546;23;20819;-76
2021/01/05 08:42:44;;;;;;;36.07;19.53;;;3.10;99.90;;;;;;6187347;23;20231;-76
2021/01/05 08:45:10;;;;;;;38.73;22.10;;;3.10;99.90;;;;;;6134476;23;20370;-77
2021/01/05 08:47:35;;;;;;;32.10;18.87;;;3.10;99.90;;;;;;6157959;23;20182;-76
2021/01/05 08:50:03;;;;;;;40.40;22.50;;;3.10;99.90;;;;;;6108146;23;20375;-77
2021/01/05 08:52:28;;;;;;;43.00;22.00;;;3.10;99.90;;;;;;6155522;23;20171;-76
2021/01/05 08:54:54;;;;;;;46.77;21.23;;;3.20;99.90;;;;;;6159885;23;20388;-76
2021/01/05 08:57:20;;;;;;;47.17;22.13;;;3.10;99.90;;;;;;6158585;23;20179;-76
2021/01/05 08:59:46;;;;;;;37.67;21.07;;;3.10;99.90;;;;;;6160909;23;20175;-76
2021/01/05 09:02:12;;;;;;;41.20;20.93;;;3.10;99.90;;;;;;6157828;23;20588;-76
2021/01/05 09:04:38;;;;;;;39.83;20.63;;;3.10;99.90;;;;;;6187930;23;20398;-76
2021/01/05 09:07:04;;;;;;;33.57;20.03;;;3.10;99.90;;;;;;6155627;23;20171;-76
2021/01/05 09:09:29;;;;;;;35.57;20.67;;;3.10;99.90;;;;;;6185976;23;20179;-76
2021/01/05 09:11:57;;;;;;;38.00;19.57;;;3.00;99.90;;;;;;6159548;23;20172;-76
2021/01/05 09:14:23;;;;;;;41.73;21.73;;;3.00;99.90;;;;;;6135485;23;20616;-77
2021/01/05 09:16:56;;;;;;;36.27;21.20;;;3.00;99.90;;;;;;6158040;23;20365;-77
2021/01/05 09:19:22;;;;;;;41.00;21.97;;;3.00;99.90;;;;;;6136331;23;20352;-76
2021/01/05 09:21:47;;;;;;;38.50;19.37;;;3.00;99.90;;;;;;6133858;23;20465;-76
2021/01/05 09:24:13;;;;;;;41.47;20.27;;;3.00;99.90;;;;;;6134381;23;20210;-76
2021/01/05 09:26:39;;;;;;;34.93;20.50;;;3.10;99.90;;;;;;6159778;23;20178;-77
2021/01/05 09:29:07;;;;;;;33.27;18.83;;;3.10;99.90;;;;;;6187598;23;20347;-77
2021/01/05 09:31:39;;;;;;;31.67;18.93;;;3.20;99.90;;;;;;6187706;23;20155;-77
2021/01/05 09:34:04;;;;;;;41.03;20.37;;;3.30;99.90;;;;;;6188138;23;20371;-76
2021/01/05 09:36:35;;;;;;;37.57;21.67;;;3.30;99.90;;;;;;6133887;23;20692;-76
2021/01/05 09:39:03;;;;;;;38.57;19.70;;;3.40;99.90;;;;;;6160776;23;20169;-76
2021/01/05 09:41:39;;;;;;;34.20;18.60;;;3.30;99.90;;;;;;6188251;23;20382;-77
2021/01/05 09:44:06;;;;;;;39.67;18.90;;;3.30;99.90;;;;;;6188161;23;20377;-76
2021/01/05 09:46:31;;;;;;;38.13;21.03;;;3.30;99.90;;;;;;6159143;23;20477;-77
2021/01/05 09:48:57;;;;;;;39.67;20.03;;;3.30;99.90;;;;;;6161408;23;20361;-76
2021/01/05 09:51:31;;;;;;;33.17;16.97;;;3.40;99.90;;;;;;6135230;23;20199;-76
2021/01/05 09:53:57;;;;;;;32.53;18.23;;;3.30;99.90;;;;;;6161217;23;20511;-76
2021/01/05 09:56:23;;;;;;;36.30;19.73;;;3.30;99.90;;;;;;6158955;23;20973;-76
2021/01/05 09:58:49;;;;;;;42.97;20.07;;;3.40;99.90;;;;;;6161673;23;20354;-77
2021/01/05 10:01:22;;;;;;;29.50;17.57;;;3.40;99.90;;;;;;6135828;23;20356;-76
2021/01/05 10:03:47;;;;;;;31.50;18.53;;;3.30;99.90;;;;;;6187346;23;20388;-76
2021/01/05 10:06:13;;;;;;;35.63;18.10;;;3.40;99.90;;;;;;6161000;23;20365;-76
2021/01/05 10:08:39;;;;;;;40.70;21.27;;;3.40;99.90;;;;;;6135004;23;20209;-76
2021/01/05 10:11:04;;;;;;;39.77;17.03;;;3.40;99.90;;;;;;6162874;23;20174;-76
2021/01/05 10:13:30;;;;;;;36.60;19.50;;;3.30;99.90;;;;;;6136380;23;20247;-77
2021/01/05 10:15:56;;;;;;;38.60;18.80;;;3.30;99.90;;;;;;6160719;23;20476;-76
2021/01/05 10:18:21;;;;;;;40.13;24.70;;;3.30;99.90;;;;;;6112074;23;20254;-77
2021/01/05 10:20:49;;;;;;;33.60;20.10;;;3.20;99.90;;;;;;6162172;23;20249;-76
2021/01/05 10:23:15;;;;;;;37.17;20.60;;;3.20;99.90;;;;;;6162023;23;20651;-77
2021/01/05 10:25:41;;;;;;;32.80;19.30;;;3.30;99.90;;;;;;6187519;23;20835;-77
2021/01/05 10:28:06;;;;;;;39.17;18.90;;;3.30;99.90;;;;;;6137193;23;20347;-77
2021/01/05 10:30:32;;;;;;;44.00;22.50;;;3.20;99.90;;;;;;6158330;23;20367;-77
2021/01/05 10:32:58;;;;;;;48.10;23.77;;;3.30;99.90;;;;;;6185344;23;20227;-77
2021/01/05 10:35:23;;;;;;;37.03;20.60;;;3.30;99.90;;;;;;6113585;23;20441;-77
2021/01/05 10:37:50;;;;;;;41.10;19.87;;;3.40;99.90;;;;;;6138138;23;20171;-76
2021/01/05 10:40:19;;;;;;;32.00;20.43;;;3.50;99.90;;;;;;6161929;23;20367;-77
2021/01/05 10:42:46;;;;;;;41.37;20.73;;;3.50;99.90;;;;;;6160172;23;20378;-77
2021/01/05 10:45:16;;;;;;;30.40;18.40;;;3.30;99.90;;;;;;6158002;23;20701;-77
2021/01/05 10:47:41;;;;;;;38.77;21.00;;;3.40;99.90;;;;;;6159740;23;20841;-77
2021/01/05 10:50:13;;;;;;;35.93;19.50;;;3.40;99.90;;;;;;6136639;23;20367;-77
2021/01/05 10:52:39;;;;;;;32.40;17.13;;;3.40;99.90;;;;;;6112543;23;20182;-77
2021/01/05 10:55:06;;;;;;;40.60;20.50;;;3.40;99.90;;;;;;6137748;23;20382;-77
2021/01/05 10:57:31;;;;;;;38.20;22.17;;;3.50;99.90;;;;;;6132042;23;20195;-77
2021/01/05 10:59:57;;;;;;;50.47;24.10;;;3.60;99.90;;;;;;6086909;23;20343;-77
2021/01/05 11:02:23;;;;;;;32.63;17.97;;;3.70;99.90;;;;;;6087994;23;20181;-76
2021/01/05 11:04:48;;;;;;;44.50;20.50;;;3.60;99.90;;;;;;6135153;23;20181;-76
2021/01/05 11:07:16;;;;;;;23.30;15.43;;;3.70;99.90;;;;;;6111805;23;20167;-77
2021/01/05 11:09:43;;;;;;;38.77;19.07;;;3.60;99.90;;;;;;6161679;23;21054;-77
2021/01/05 11:12:12;;;;;;;28.10;17.53;;;3.60;99.90;;;;;;6137551;23;21109;-77
2021/01/05 11:14:40;;;;;;;32.80;18.33;;;3.50;99.90;;;;;;6136529;23;20433;-76
2021/01/05 11:17:07;;;;;;;36.47;20.10;;;3.50;99.90;;;;;;6161437;23;20368;-76
2021/01/05 11:19:33;;;;;;;32.63;18.70;;;3.50;99.90;;;;;;6136070;23;20788;-76
2021/01/05 11:22:02;;;;;;;35.23;20.60;;;3.60;99.90;;;;;;6161383;23;20362;-77
2021/01/05 11:24:29;;;;;;;38.00;20.70;;;3.70;99.90;;;;;;6160378;23;20358;-77
2021/01/05 11:26:57;;;;;;;40.47;20.97;;;3.80;99.90;;;;;;6135247;23;20479;-76
2021/01/05 11:29:24;;;;;;;41.53;22.70;;;3.70;99.90;;;;;;6158427;23;20769;-77
2021/01/05 11:32:11;;;;;;;38.90;23.27;;;3.80;99.90;;;;;;6161124;23;20352;-77
2021/01/05 11:34:37;;;;;;;45.70;25.43;;;3.70;99.90;;;;;;6137047;23;20340;-76
2021/01/05 11:37:05;;;;;;;39.00;20.30;;;3.60;99.90;;;;;;6112766;23;20411;-78
2021/01/05 11:39:31;;;;;;;26.53;16.77;;;3.60;99.90;;;;;;6114584;23;20361;-77
2021/01/05 11:42:02;;;;;;;43.43;22.03;;;3.60;99.90;;;;;;6134168;23;20742;-77
2021/01/05 11:44:28;;;;;;;38.93;21.20;;;3.60;99.90;;;;;;6136013;23;20180;-77
2021/01/05 11:46:54;;;;;;;41.57;22.87;;;3.60;99.90;;;;;;6137332;23;20354;-77
2021/01/05 11:49:20;;;;;;;43.57;22.73;;;3.60;99.90;;;;;;6138573;23;20800;-78
2021/01/05 11:51:50;;;;;;;47.30;23.70;;;3.50;99.90;;;;;;6112113;23;20875;-77
2021/01/05 11:54:16;;;;;;;41.60;23.00;;;3.50;99.90;;;;;;6160113;23;20387;-78
2021/01/05 11:56:42;;;;;;;37.37;20.30;;;3.40;99.90;;;;;;6161397;23;20380;-76
2021/01/05 11:59:08;;;;;;;47.43;24.27;;;3.50;99.90;;;;;;6163848;23;20414;-76
2021/01/05 12:01:36;;;;;;;39.60;19.50;;;3.50;99.90;;;;;;6134178;23;20552;-77
2021/01/05 12:04:08;;;;;;;49.63;22.47;;;3.50;99.90;;;;;;6161967;23;20447;-77
2021/01/05 12:06:34;;;;;;;46.73;22.60;;;3.60;99.90;;;;;;6136969;23;20393;-77
2021/01/05 12:09:00;;;;;;;39.00;20.60;;;3.70;99.90;;;;;;6139367;23;20418;-76
2021/01/05 12:11:33;;;;;;;54.10;20.27;;;3.60;99.90;;;;;;6159961;23;20225;-77
2021/01/05 12:13:59;;;;;;;44.23;24.27;;;3.50;99.90;;;;;;6186158;23;20179;-76
2021/01/05 12:16:40;;;;;;;37.83;20.57;;;3.50;99.90;;;;;;6110655;23;20464;-77
2021/01/05 12:19:16;;;;;;;30.97;18.00;;;3.60;99.90;;;;;;6131105;23;20895;-77
2021/01/05 12:21:43;;;;;;;37.97;18.10;;;3.60;99.90;;;;;;6135375;23;20339;-77
2021/01/05 12:24:13;;;;;;;37.57;22.20;;;3.60;99.90;;;;;;6160491;23;20367;-77
2021/01/05 12:26:40;;;;;;;40.60;22.50;;;3.50;99.90;;;;;;6160780;23;20335;-76
2021/01/05 12:29:19;;;;;;;38.97;19.50;;;3.50;99.90;;;;;;6160513;23;20777;-76
2021/01/05 12:32:09;;;;;;;40.37;21.90;;;3.50;99.90;;;;;;6188212;23;20361;-77
2021/01/05 12:34:38;;;;;;;38.90;21.10;;;3.50;99.90;;;;;;6188727;23;20378;-77
2021/01/05 12:37:09;;;;;;;38.13;21.20;;;3.50;99.90;;;;;;6129707;23;20354;-77
2021/01/05 12:39:36;;;;;;;44.40;20.43;;;3.60;99.90;;;;;;6184058;23;20334;-77
2021/01/05 12:42:07;;;;;;;47.70;20.03;;;3.60;99.90;;;;;;6134619;23;20345;-76
2021/01/05 12:44:33;;;;;;;41.80;20.73;;;3.50;99.90;;;;;;6184709;23;20821;-77
2021/01/05 12:46:59;;;;;;;41.67;15.67;;;3.50;99.90;;;;;;6133755;23;20383;-77
2021/01/05 12:49:25;;;;;;;42.63;22.83;;;3.50;99.90;;;;;;6133741;23;20634;-77
2021/01/05 12:51:51;;;;;;;49.10;25.20;;;3.50;99.90;;;;;;6109312;23;20179;-77
2021/01/05 12:54:26;;;;;;;37.20;21.83;;;3.50;99.90;;;;;;6135495;23;20179;-77